createdAt,value
2022-11-07T00:00:00.315Z,887.5
2022-11-07T00:01:00.318Z,887.5
2022-11-07T00:02:00.346Z,887.5
2022-11-07T00:03:00.576Z,887.5
2022-11-07T00:04:00.302Z,887.5
2022-11-07T00:05:00.300Z,887.5
2022-11-07T00:06:00.293Z,887.5
2022-11-07T00:07:00.294Z,887.5
2022-11-07T00:08:00.319Z,887.5
2022-11-07T00:09:00.433Z,887.5
2022-11-07T00:10:00.369Z,887.5
2022-11-07T00:11:00.313Z,887.5
2022-11-07T00:12:00.382Z,887.4
2022-11-07T00:13:00.400Z,887.4
2022-11-07T00:14:00.586Z,887.5
2022-11-07T00:15:00.416Z,887.5
2022-11-07T00:16:00.313Z,887.5
2022-11-07T00:17:00.352Z,887.5
2022-11-07T00:18:00.352Z,887.5
2022-11-07T00:19:00.383Z,887.5
2022-11-07T00:20:00.294Z,887.5
2022-11-07T00:21:00.527Z,887.5
2022-11-07T00:22:00.294Z,887.4
2022-11-07T00:23:00.301Z,887.4
2022-11-07T00:24:00.315Z,887.4
2022-11-07T00:25:00.293Z,887.4
2022-11-07T00:26:00.298Z,887.4
2022-11-07T00:27:00.506Z,887.4
2022-11-07T00:28:00.281Z,887.4
2022-11-07T00:29:00.299Z,887.4
2022-11-07T00:30:00.392Z,887.4
2022-11-07T00:31:00.295Z,887.4
2022-11-07T00:32:00.305Z,887.4
2022-11-07T00:33:00.635Z,887.4
2022-11-07T00:34:00.310Z,887.4
2022-11-07T00:35:00.282Z,887.4
2022-11-07T00:36:00.307Z,887.4
2022-11-07T00:37:00.299Z,887.4
2022-11-07T00:38:00.320Z,887.4
2022-11-07T00:39:00.426Z,887.4
2022-11-07T00:40:00.312Z,887.4
2022-11-07T00:41:00.335Z,887.4
2022-11-07T00:42:00.305Z,887.4
2022-11-07T00:43:00.310Z,887.4
2022-11-07T00:44:00.320Z,887.4
2022-11-07T00:45:00.552Z,887.4
2022-11-07T00:46:00.409Z,887.4
2022-11-07T00:47:00.334Z,887.4
2022-11-07T00:48:00.333Z,887.4
2022-11-07T00:49:00.378Z,887.4
2022-11-07T00:50:00.389Z,887.4
2022-11-07T00:51:00.470Z,887.4
2022-11-07T00:52:00.320Z,887.3
2022-11-07T00:53:00.393Z,887.4
2022-11-07T00:54:00.405Z,887.4
2022-11-07T00:55:00.371Z,887.3
2022-11-07T00:56:00.427Z,887.4
2022-11-07T00:57:00.424Z,887.4
2022-11-07T00:58:00.308Z,887.4
2022-11-07T00:59:00.300Z,887.4
2022-11-07T01:00:00.296Z,887.4
2022-11-07T01:01:00.317Z,887.4
2022-11-07T01:02:00.732Z,887.4
2022-11-07T01:03:00.487Z,887.4
2022-11-07T01:04:00.304Z,887.4
2022-11-07T01:05:00.292Z,887.4
2022-11-07T01:06:00.299Z,887.3
2022-11-07T01:07:00.288Z,887.4
2022-11-07T01:08:00.323Z,887.4
2022-11-07T01:09:00.427Z,887.4
2022-11-07T01:10:00.299Z,887.4
2022-11-07T01:11:00.281Z,887.4
2022-11-07T01:12:00.285Z,887.4
2022-11-07T01:13:00.301Z,887.4
2022-11-07T01:14:00.307Z,887.4
2022-11-07T01:15:00.488Z,887.4
2022-11-07T01:16:00.300Z,887.4
2022-11-07T01:17:00.340Z,887.4
2022-11-07T01:18:00.324Z,887.5
2022-11-07T01:19:00.313Z,887.5
2022-11-07T01:20:00.305Z,887.5
2022-11-07T01:21:00.461Z,887.5
2022-11-07T01:22:00.307Z,887.5
2022-11-07T01:23:00.298Z,887.5
2022-11-07T01:24:00.355Z,887.5
2022-11-07T01:25:00.314Z,887.5
2022-11-07T01:26:00.297Z,887.5
2022-11-07T01:27:00.450Z,887.5
2022-11-07T01:28:00.357Z,887.5
2022-11-07T01:29:00.317Z,887.5
2022-11-07T01:30:00.296Z,887.5
2022-11-07T01:31:00.321Z,887.5
2022-11-07T01:32:00.348Z,887.5
2022-11-07T01:33:00.585Z,887.5
2022-11-07T01:34:00.287Z,887.5
2022-11-07T01:35:00.307Z,887.5
2022-11-07T01:36:05.729Z,887.6
2022-11-07T01:37:00.319Z,887.6
2022-11-07T01:38:00.290Z,887.6
2022-11-07T01:39:00.497Z,887.6
2022-11-07T01:40:00.342Z,887.6
2022-11-07T01:41:00.387Z,887.6
2022-11-07T01:42:00.393Z,887.6
2022-11-07T01:43:00.342Z,887.7
2022-11-07T01:44:00.283Z,887.6
2022-11-07T01:45:00.451Z,887.7
2022-11-07T01:46:00.315Z,887.7
2022-11-07T01:47:00.319Z,887.6
2022-11-07T01:48:00.556Z,887.7
2022-11-07T01:49:00.312Z,887.7
2022-11-07T01:50:00.294Z,887.7
2022-11-07T01:51:00.546Z,887.7
2022-11-07T01:52:00.296Z,887.8
2022-11-07T01:53:00.278Z,887.8
2022-11-07T01:54:00.303Z,887.8
2022-11-07T01:55:00.302Z,887.8
2022-11-07T01:56:00.294Z,887.8
2022-11-07T01:57:00.537Z,887.8
2022-11-07T01:58:00.299Z,887.8
2022-11-07T01:59:00.669Z,887.8
2022-11-07T02:00:00.322Z,887.9
2022-11-07T02:01:00.284Z,887.8
2022-11-07T02:02:00.453Z,887.9
2022-11-07T02:03:00.732Z,887.9
2022-11-07T02:04:00.313Z,887.8
2022-11-07T02:05:00.362Z,887.8
2022-11-07T02:06:00.327Z,887.9
2022-11-07T02:07:00.396Z,887.9
2022-11-07T02:08:00.311Z,887.9
2022-11-07T02:09:00.538Z,887.9
2022-11-07T02:10:00.297Z,887.9
2022-11-07T02:11:00.297Z,887.9
2022-11-07T02:12:00.295Z,887.9
2022-11-07T02:13:00.293Z,887.9
2022-11-07T02:14:00.312Z,888.0
2022-11-07T02:15:00.482Z,887.9
2022-11-07T02:16:00.306Z,887.9
2022-11-07T02:17:00.296Z,888.0
2022-11-07T02:18:00.307Z,888.0
2022-11-07T02:19:00.443Z,888.0
2022-11-07T02:20:00.302Z,888.0
2022-11-07T02:21:00.534Z,888.0
2022-11-07T02:22:00.298Z,888.0
2022-11-07T02:23:00.299Z,888.0
2022-11-07T02:24:00.294Z,888.0
2022-11-07T02:25:00.284Z,888.1
2022-11-07T02:26:00.297Z,888.0
2022-11-07T02:27:00.415Z,888.1
2022-11-07T02:28:00.292Z,888.0
2022-11-07T02:29:00.298Z,888.0
2022-11-07T02:30:00.305Z,888.0
2022-11-07T02:31:00.341Z,888.0
2022-11-07T02:32:00.346Z,888.0
2022-11-07T02:33:00.558Z,888.0
2022-11-07T02:34:00.456Z,888.0
2022-11-07T02:35:00.345Z,888.0
2022-11-07T02:36:00.353Z,888.1
2022-11-07T02:37:00.331Z,888.0
2022-11-07T02:38:00.361Z,888.1
2022-11-07T02:39:00.512Z,888.0
2022-11-07T02:40:00.359Z,888.1
2022-11-07T02:41:00.299Z,888.0
2022-11-07T02:42:00.301Z,888.0
2022-11-07T02:43:00.307Z,888.0
2022-11-07T02:44:00.311Z,888.0
2022-11-07T02:45:00.460Z,888.0
2022-11-07T02:46:00.327Z,888.0
2022-11-07T02:47:00.324Z,888.0
2022-11-07T02:48:00.300Z,888.0
2022-11-07T02:49:00.429Z,888.0
2022-11-07T02:50:00.421Z,888.0
2022-11-07T02:51:00.445Z,888.1
2022-11-07T02:52:00.279Z,888.0
2022-11-07T02:53:00.313Z,888.0
2022-11-07T02:54:00.333Z,888.0
2022-11-07T02:55:00.292Z,888.0
2022-11-07T02:56:00.279Z,888.0
2022-11-07T02:57:00.462Z,888.0
2022-11-07T02:58:00.354Z,888.0
2022-11-07T02:59:00.286Z,888.0
2022-11-07T03:00:00.349Z,888.0
2022-11-07T03:01:00.365Z,888.0
2022-11-07T03:02:00.540Z,888.0
2022-11-07T03:03:00.422Z,888.0
2022-11-07T03:04:00.321Z,888.0
2022-11-07T03:05:00.413Z,888.1
2022-11-07T03:06:00.350Z,888.0
2022-11-07T03:07:00.302Z,888.0
2022-11-07T03:08:00.313Z,888.0
2022-11-07T03:09:00.357Z,888.0
2022-11-07T03:10:00.298Z,888.0
2022-11-07T03:11:00.307Z,888.0
2022-11-07T03:12:00.311Z,888.0
2022-11-07T03:13:00.291Z,888.0
2022-11-07T03:14:00.293Z,888.0
2022-11-07T03:15:00.572Z,888.0
2022-11-07T03:16:00.291Z,888.0
2022-11-07T03:17:00.297Z,888.0
2022-11-07T03:18:00.312Z,888.0
2022-11-07T03:19:00.327Z,888.0
2022-11-07T03:20:00.448Z,888.0
2022-11-07T03:21:00.465Z,888.0
2022-11-07T03:22:00.283Z,888.0
2022-11-07T03:23:00.294Z,888.0
2022-11-07T03:24:00.294Z,888.0
2022-11-07T03:25:00.310Z,888.0
2022-11-07T03:26:00.292Z,888.0
2022-11-07T03:27:00.429Z,888.0
2022-11-07T03:28:00.362Z,888.0
2022-11-07T03:29:00.372Z,888.0
2022-11-07T03:30:00.390Z,887.9
2022-11-07T03:31:00.311Z,888.0
2022-11-07T03:32:00.400Z,888.0
2022-11-07T03:33:00.453Z,888.0
2022-11-07T03:34:00.316Z,888.0
2022-11-07T03:35:00.417Z,888.0
2022-11-07T03:36:00.294Z,888.0
2022-11-07T03:37:00.305Z,888.0
2022-11-07T03:38:00.297Z,888.0
2022-11-07T03:39:00.405Z,888.0
2022-11-07T03:40:00.289Z,888.0
2022-11-07T03:41:00.297Z,888.0
2022-11-07T03:42:00.291Z,888.0
2022-11-07T03:43:00.301Z,888.0
2022-11-07T03:44:00.293Z,888.0
2022-11-07T03:45:00.424Z,888.0
2022-11-07T03:46:00.282Z,888.0
2022-11-07T03:47:00.308Z,888.0
2022-11-07T03:48:00.281Z,888.0
2022-11-07T03:49:00.316Z,888.0
2022-11-07T03:50:00.436Z,888.0
2022-11-07T03:51:00.393Z,888.0
2022-11-07T03:52:00.302Z,888.0
2022-11-07T03:53:00.293Z,888.0
2022-11-07T03:54:00.300Z,888.0
2022-11-07T03:55:00.284Z,888.0
2022-11-07T03:56:00.300Z,888.0
2022-11-07T03:57:00.632Z,888.1
2022-11-07T03:58:00.303Z,888.0
2022-11-07T03:59:00.349Z,888.1
2022-11-07T04:00:00.318Z,888.1
2022-11-07T04:01:00.358Z,888.1
2022-11-07T04:02:00.482Z,888.1
2022-11-07T04:03:00.666Z,888.1
2022-11-07T04:04:00.324Z,888.1
2022-11-07T04:05:00.518Z,888.1
2022-11-07T04:06:00.296Z,888.1
2022-11-07T04:07:00.286Z,888.1
2022-11-07T04:08:00.309Z,888.1
2022-11-07T04:09:00.478Z,888.1
2022-11-07T04:10:00.301Z,888.1
2022-11-07T04:11:00.307Z,888.1
2022-11-07T04:12:00.305Z,888.1
2022-11-07T04:13:00.291Z,888.1
2022-11-07T04:14:00.299Z,888.2
2022-11-07T04:15:00.493Z,888.2
2022-11-07T04:16:00.296Z,888.2
2022-11-07T04:17:00.277Z,888.2
2022-11-07T04:18:00.298Z,888.2
2022-11-07T04:19:00.290Z,888.3
2022-11-07T04:20:00.329Z,888.2
2022-11-07T04:21:00.372Z,888.3
2022-11-07T04:22:00.325Z,888.3
2022-11-07T04:23:00.292Z,888.3
2022-11-07T04:24:00.360Z,888.3
2022-11-07T04:25:00.331Z,888.3
2022-11-07T04:26:00.337Z,888.4
2022-11-07T04:27:00.479Z,888.4
2022-11-07T04:28:00.396Z,888.4
2022-11-07T04:29:00.298Z,888.4
2022-11-07T04:30:00.358Z,888.4
2022-11-07T04:31:00.310Z,888.4
2022-11-07T04:32:00.297Z,888.4
2022-11-07T04:33:00.504Z,888.4
2022-11-07T04:34:00.307Z,888.5
2022-11-07T04:35:00.468Z,888.5
2022-11-07T04:36:00.390Z,888.5
2022-11-07T04:37:00.289Z,888.5
2022-11-07T04:38:00.279Z,888.5
2022-11-07T04:39:00.493Z,888.5
2022-11-07T04:40:00.280Z,888.6
2022-11-07T04:41:00.295Z,888.6
2022-11-07T04:42:00.309Z,888.6
2022-11-07T04:43:00.315Z,888.6
2022-11-07T04:44:00.287Z,888.6
2022-11-07T04:45:00.557Z,888.6
2022-11-07T04:46:00.299Z,888.6
2022-11-07T04:47:00.293Z,888.6
2022-11-07T04:48:00.284Z,888.6
2022-11-07T04:49:00.301Z,888.7
2022-11-07T04:50:00.322Z,888.7
2022-11-07T04:51:00.482Z,888.7
2022-11-07T04:52:00.422Z,888.7
2022-11-07T04:53:00.305Z,888.7
2022-11-07T04:54:00.314Z,888.8
2022-11-07T04:55:00.295Z,888.8
2022-11-07T04:56:00.276Z,888.8
2022-11-07T04:57:00.464Z,888.8
2022-11-07T04:58:00.320Z,888.8
2022-11-07T04:59:00.304Z,888.8
2022-11-07T05:00:00.369Z,888.8
2022-11-07T05:01:00.383Z,888.8
2022-11-07T05:02:00.501Z,888.8
2022-11-07T05:03:00.529Z,888.8
2022-11-07T05:04:00.364Z,888.9
2022-11-07T05:05:00.309Z,888.9
2022-11-07T05:06:00.312Z,888.9
2022-11-07T05:07:00.440Z,888.9
2022-11-07T05:08:00.359Z,889.0
2022-11-07T05:09:00.420Z,889.0
2022-11-07T05:10:00.295Z,889.0
2022-11-07T05:11:00.282Z,889.0
2022-11-07T05:12:00.298Z,889.0
2022-11-07T05:13:00.393Z,889.0
2022-11-07T05:14:00.347Z,889.1
2022-11-07T05:15:00.496Z,889.0
2022-11-07T05:16:00.284Z,889.0
2022-11-07T05:17:00.309Z,889.0
2022-11-07T05:18:00.293Z,889.1
2022-11-07T05:19:00.326Z,889.0
2022-11-07T05:20:00.283Z,889.1
2022-11-07T05:21:00.467Z,889.1
2022-11-07T05:22:00.374Z,889.1
2022-11-07T05:23:00.294Z,889.1
2022-11-07T05:24:00.299Z,889.1
2022-11-07T05:25:00.311Z,889.2
2022-11-07T05:26:00.292Z,889.1
2022-11-07T05:27:00.434Z,889.1
2022-11-07T05:28:00.301Z,889.1
2022-11-07T05:29:00.307Z,889.1
2022-11-07T05:30:00.295Z,889.1
2022-11-07T05:31:00.312Z,889.1
2022-11-07T05:32:00.305Z,889.1
2022-11-07T05:33:00.430Z,889.1
2022-11-07T05:34:00.314Z,889.1
2022-11-07T05:35:00.329Z,889.1
2022-11-07T05:36:00.294Z,889.1
2022-11-07T05:37:00.321Z,889.1
2022-11-07T05:38:00.550Z,889.1
2022-11-07T05:39:00.573Z,889.2
2022-11-07T05:40:00.360Z,889.2
2022-11-07T05:41:00.301Z,889.1
2022-11-07T05:42:00.318Z,889.1
2022-11-07T05:43:00.305Z,889.2
2022-11-07T05:44:00.361Z,889.2
2022-11-07T05:45:00.465Z,889.2
2022-11-07T05:46:00.398Z,889.2
2022-11-07T05:47:00.301Z,889.2
2022-11-07T05:48:00.356Z,889.2
2022-11-07T05:49:01.274Z,889.2
2022-11-07T05:50:00.377Z,889.2
2022-11-07T05:51:00.437Z,889.2
2022-11-07T05:52:00.393Z,889.2
2022-11-07T05:53:00.415Z,889.2
2022-11-07T05:54:00.462Z,889.2
2022-11-07T05:55:00.303Z,889.2
2022-11-07T05:56:00.312Z,889.2
2022-11-07T05:57:00.460Z,889.2
2022-11-07T05:58:05.857Z,889.2
2022-11-07T05:59:00.295Z,889.2
2022-11-07T06:00:00.311Z,889.2
2022-11-07T06:01:00.340Z,889.2
2022-11-07T06:02:00.373Z,889.2
2022-11-07T06:03:00.637Z,889.2
2022-11-07T06:04:00.303Z,889.2
2022-11-07T06:05:00.306Z,889.2
2022-11-07T06:06:00.303Z,889.2
2022-11-07T06:07:00.290Z,889.2
2022-11-07T06:08:00.316Z,889.2
2022-11-07T06:09:00.523Z,889.2
2022-11-07T06:10:00.332Z,889.1
2022-11-07T06:11:00.318Z,889.1
2022-11-07T06:12:00.322Z,889.1
2022-11-07T06:13:00.316Z,889.1
2022-11-07T06:14:00.305Z,889.1
2022-11-07T06:15:00.496Z,889.2
2022-11-07T06:16:00.290Z,889.2
2022-11-07T06:17:00.362Z,889.2
2022-11-07T06:18:00.309Z,889.2
2022-11-07T06:19:00.288Z,889.3
2022-11-07T06:20:00.332Z,889.2
2022-11-07T06:21:00.594Z,889.2
2022-11-07T06:22:00.295Z,889.2
2022-11-07T06:23:00.362Z,889.3
2022-11-07T06:24:00.442Z,889.2
2022-11-07T06:25:00.334Z,889.3
2022-11-07T06:26:00.429Z,889.2
2022-11-07T06:27:00.460Z,889.3
2022-11-07T06:28:00.389Z,889.2
2022-11-07T06:29:00.378Z,889.2
2022-11-07T06:30:00.295Z,889.2
2022-11-07T06:31:00.293Z,889.2
2022-11-07T06:32:00.304Z,889.2
2022-11-07T06:33:00.483Z,889.2
2022-11-07T06:34:00.315Z,889.2
2022-11-07T06:35:00.310Z,889.2
2022-11-07T06:36:00.312Z,889.2
2022-11-07T06:37:03.400Z,889.3
2022-11-07T06:38:00.284Z,889.2
2022-11-07T06:39:00.447Z,889.2
2022-11-07T06:40:00.295Z,889.2
2022-11-07T06:41:00.374Z,889.2
2022-11-07T06:42:00.281Z,889.2
2022-11-07T06:43:00.299Z,889.2
2022-11-07T06:44:00.295Z,889.2
2022-11-07T06:45:00.478Z,889.2
2022-11-07T06:46:00.307Z,889.2
2022-11-07T06:47:00.296Z,889.2
2022-11-07T06:48:00.361Z,889.2
2022-11-07T06:49:00.322Z,889.2
2022-11-07T06:50:00.308Z,889.2
2022-11-07T06:51:00.581Z,889.2
2022-11-07T06:52:00.316Z,889.2
2022-11-07T06:53:00.437Z,889.3
2022-11-07T06:54:00.427Z,889.2
2022-11-07T06:55:00.310Z,889.2
2022-11-07T06:56:00.313Z,889.2
2022-11-07T06:57:00.522Z,889.2
2022-11-07T06:58:00.316Z,889.2
2022-11-07T06:59:00.325Z,889.2
2022-11-07T07:00:00.383Z,889.2
2022-11-07T07:01:00.427Z,889.2
2022-11-07T07:02:00.426Z,889.2
2022-11-07T07:03:00.561Z,889.2
2022-11-07T07:04:00.325Z,889.2
2022-11-07T07:05:00.351Z,889.2
2022-11-07T07:06:00.751Z,889.2
2022-11-07T07:07:00.404Z,889.2
2022-11-07T07:08:00.293Z,889.2
2022-11-07T07:09:00.511Z,889.2
2022-11-07T07:10:00.377Z,889.2
2022-11-07T07:11:00.330Z,889.2
2022-11-07T07:12:00.370Z,889.1
2022-11-07T07:13:00.294Z,889.2
2022-11-07T07:14:02.314Z,889.2
2022-11-07T07:15:00.763Z,889.2
2022-11-07T07:16:00.420Z,889.1
2022-11-07T07:17:00.404Z,889.1
2022-11-07T07:18:00.407Z,889.1
2022-11-07T07:19:00.350Z,889.1
2022-11-07T07:20:00.321Z,889.2
2022-11-07T07:21:00.473Z,889.1
2022-11-07T07:22:00.326Z,889.2
2022-11-07T07:23:05.550Z,889.1
2022-11-07T07:24:00.299Z,889.2
2022-11-07T07:25:00.513Z,889.2
2022-11-07T07:26:00.397Z,889.2
2022-11-07T07:27:00.521Z,889.1
2022-11-07T07:28:00.294Z,889.2
2022-11-07T07:29:00.323Z,889.2
2022-11-07T07:30:00.342Z,889.2
2022-11-07T07:31:00.295Z,889.1
2022-11-07T07:32:00.310Z,889.1
2022-11-07T07:33:00.403Z,889.1
2022-11-07T07:34:00.357Z,889.1
2022-11-07T07:35:00.342Z,889.2
2022-11-07T07:36:00.316Z,889.1
2022-11-07T07:37:00.299Z,889.1
2022-11-07T07:38:00.317Z,889.1
2022-11-07T07:39:00.479Z,889.2
2022-11-07T07:40:00.441Z,889.1
2022-11-07T07:41:00.446Z,889.2
2022-11-07T07:42:00.434Z,889.1
2022-11-07T07:43:00.328Z,889.2
2022-11-07T07:44:00.315Z,889.1
2022-11-07T07:45:00.404Z,889.1
2022-11-07T07:46:00.419Z,889.1
2022-11-07T07:47:00.305Z,889.1
2022-11-07T07:48:00.295Z,889.1
2022-11-07T07:49:00.371Z,889.1
2022-11-07T07:50:00.341Z,889.1
2022-11-07T07:51:00.530Z,889.1
2022-11-07T07:52:00.325Z,889.1
2022-11-07T07:53:04.788Z,889.1
2022-11-07T07:54:00.354Z,889.0
2022-11-07T07:55:00.423Z,889.1
2022-11-07T07:56:00.319Z,889.1
2022-11-07T07:57:00.618Z,889.1
2022-11-07T07:58:00.508Z,889.1
2022-11-07T07:59:00.309Z,889.1
2022-11-07T08:00:00.304Z,889.0
2022-11-07T08:01:00.411Z,889.0
2022-11-07T08:02:00.424Z,889.0
2022-11-07T08:03:00.419Z,889.1
2022-11-07T08:04:02.283Z,889.0
2022-11-07T08:05:00.324Z,889.1
2022-11-07T08:06:00.298Z,889.0
2022-11-07T08:07:00.300Z,889.0
2022-11-07T08:08:00.280Z,889.0
2022-11-07T08:09:00.379Z,889.0
2022-11-07T08:10:09.772Z,888.9
2022-11-07T08:11:00.281Z,888.9
2022-11-07T08:12:00.340Z,888.9
2022-11-07T08:13:00.457Z,888.9
2022-11-07T08:14:01.680Z,888.9
2022-11-07T08:15:00.434Z,888.9
2022-11-07T08:16:00.325Z,888.9
2022-11-07T08:17:00.292Z,889.0
2022-11-07T08:18:00.332Z,888.9
2022-11-07T08:19:00.358Z,888.8
2022-11-07T08:20:00.302Z,888.9
2022-11-07T08:21:00.619Z,888.9
2022-11-07T08:22:00.373Z,888.9
2022-11-07T08:23:00.310Z,888.9
2022-11-07T08:24:00.379Z,888.9
2022-11-07T08:25:00.372Z,888.9
2022-11-07T08:26:00.335Z,888.9
2022-11-07T08:27:00.518Z,888.8
2022-11-07T08:28:00.411Z,888.8
2022-11-07T08:29:00.413Z,888.8
2022-11-07T08:30:00.467Z,888.8
2022-11-07T08:31:00.464Z,888.8
2022-11-07T08:32:00.309Z,888.8
2022-11-07T08:33:00.393Z,888.8
2022-11-07T08:34:00.480Z,888.8
2022-11-07T08:35:00.322Z,888.8
2022-11-07T08:36:00.296Z,888.8
2022-11-07T08:37:00.320Z,888.8
2022-11-07T08:38:00.354Z,888.7
2022-11-07T08:39:00.690Z,888.8
2022-11-07T08:40:00.339Z,888.8
2022-11-07T08:41:00.316Z,888.8
2022-11-07T08:42:00.346Z,888.8
2022-11-07T08:43:00.316Z,888.8
2022-11-07T08:44:00.326Z,888.7
2022-11-07T08:45:00.458Z,888.7
2022-11-07T08:46:00.316Z,888.7
2022-11-07T08:47:04.397Z,888.7
2022-11-07T08:48:00.283Z,888.7
2022-11-07T08:49:00.284Z,888.7
2022-11-07T08:50:00.318Z,888.7
2022-11-07T08:51:00.514Z,888.7
2022-11-07T08:52:00.326Z,888.7
2022-11-07T08:53:03.058Z,888.7
2022-11-07T08:54:00.329Z,888.7
2022-11-07T08:55:00.351Z,888.7
2022-11-07T08:56:00.943Z,888.6
2022-11-07T08:57:00.464Z,888.6
2022-11-07T08:58:00.323Z,888.7
2022-11-07T08:59:00.352Z,888.7
2022-11-07T09:00:00.622Z,888.6
2022-11-07T09:01:00.464Z,888.6
2022-11-07T09:02:53.857Z,888.6
2022-11-07T09:04:00.585Z,888.6
2022-11-07T09:05:00.412Z,888.6
2022-11-07T09:06:00.370Z,888.5
2022-11-07T09:07:00.422Z,888.5
2022-11-07T09:08:00.305Z,888.5
2022-11-07T09:09:00.491Z,888.5
2022-11-07T09:10:00.335Z,888.5
2022-11-07T09:11:00.320Z,888.5
2022-11-07T09:12:00.439Z,888.5
2022-11-07T09:13:00.316Z,888.4
2022-11-07T09:14:00.311Z,888.4
2022-11-07T09:15:00.520Z,888.4
2022-11-07T09:16:00.481Z,888.4
2022-11-07T09:17:00.350Z,888.4
2022-11-07T09:18:00.318Z,888.4
2022-11-07T09:19:00.313Z,888.4
2022-11-07T09:20:00.360Z,888.4
2022-11-07T09:21:00.507Z,888.3
2022-11-07T09:22:00.340Z,888.3
2022-11-07T09:23:00.340Z,888.3
2022-11-07T09:24:00.331Z,888.3
2022-11-07T09:25:00.421Z,888.3
2022-11-07T09:26:00.300Z,888.3
2022-11-07T09:27:00.587Z,888.3
2022-11-07T09:28:00.357Z,888.2
2022-11-07T09:29:01.449Z,888.2
2022-11-07T09:30:00.331Z,888.2
2022-11-07T09:31:00.517Z,888.2
2022-11-07T09:32:12.139Z,888.2
2022-11-07T09:33:00.423Z,888.2
2022-11-07T09:34:00.325Z,888.1
2022-11-07T09:35:04.709Z,888.2
2022-11-07T09:36:00.352Z,888.2
2022-11-07T09:37:00.320Z,888.1
2022-11-07T09:38:00.365Z,888.1
2022-11-07T09:39:00.591Z,888.1
2022-11-07T09:40:00.348Z,888.1
2022-11-07T09:41:00.445Z,888.1
2022-11-07T09:42:00.452Z,888.0
2022-11-07T09:43:00.349Z,888.1
2022-11-07T09:44:00.310Z,888.0
2022-11-07T09:45:00.942Z,888.0
2022-11-07T09:46:00.313Z,888.0
2022-11-07T09:47:00.483Z,888.0
2022-11-07T09:48:00.326Z,888.0
2022-11-07T09:49:00.352Z,887.9
2022-11-07T09:50:00.382Z,888.0
2022-11-07T09:51:00.549Z,887.9
2022-11-07T09:52:00.340Z,887.9
2022-11-07T09:53:00.456Z,888.0
2022-11-07T09:54:00.337Z,887.9
2022-11-07T09:55:00.406Z,887.9
2022-11-07T09:56:00.431Z,887.9
2022-11-07T09:57:00.634Z,887.9
2022-11-07T09:58:00.357Z,887.9
2022-11-07T09:59:00.433Z,887.8
2022-11-07T10:00:00.427Z,887.9
2022-11-07T10:01:00.400Z,887.8
2022-11-07T10:02:00.389Z,887.8
2022-11-07T10:03:00.581Z,887.8
2022-11-07T10:04:25.293Z,887.8
2022-11-07T10:05:00.422Z,887.8
2022-11-07T10:06:00.441Z,887.8
2022-11-07T10:07:00.321Z,887.8
2022-11-07T10:08:00.439Z,887.8
2022-11-07T10:09:00.497Z,887.8
2022-11-07T10:10:00.361Z,887.8
2022-11-07T10:11:00.512Z,887.7
2022-11-07T10:12:00.382Z,887.7
2022-11-07T10:13:00.351Z,887.7
2022-11-07T10:14:00.309Z,887.7
2022-11-07T10:15:00.492Z,887.7
2022-11-07T10:16:00.375Z,887.8
2022-11-07T10:17:00.492Z,887.7
2022-11-07T10:18:00.708Z,887.7
2022-11-07T10:19:00.431Z,887.7
2022-11-07T10:20:00.349Z,887.7
2022-11-07T10:21:16.083Z,887.7
2022-11-07T10:22:00.339Z,887.7
2022-11-07T10:23:00.408Z,887.6
2022-11-07T10:24:00.321Z,887.7
2022-11-07T10:25:00.425Z,887.7
2022-11-07T10:26:00.330Z,887.6
2022-11-07T10:27:00.561Z,887.6
2022-11-07T10:28:00.327Z,887.6
2022-11-07T10:29:00.323Z,887.6
2022-11-07T10:30:00.322Z,887.6
2022-11-07T10:31:00.361Z,887.6
2022-11-07T10:32:00.422Z,887.6
2022-11-07T10:33:00.544Z,887.6
2022-11-07T10:34:00.511Z,887.6
2022-11-07T10:35:00.356Z,887.6
2022-11-07T10:36:00.336Z,887.5
2022-11-07T10:37:00.346Z,887.5
2022-11-07T10:38:00.365Z,887.5
2022-11-07T10:39:00.542Z,887.5
2022-11-07T10:40:00.350Z,887.4
2022-11-07T10:41:00.388Z,887.4
2022-11-07T10:42:00.348Z,887.4
2022-11-07T10:43:00.414Z,887.4
2022-11-07T10:44:00.359Z,887.5
2022-11-07T10:45:00.432Z,887.4
2022-11-07T10:46:00.371Z,887.4
2022-11-07T10:47:00.436Z,887.4
2022-11-07T10:48:00.496Z,887.4
2022-11-07T10:49:00.615Z,887.4
2022-11-07T10:50:00.540Z,887.4
2022-11-07T10:51:00.416Z,887.4
2022-11-07T10:52:00.346Z,887.4
2022-11-07T10:53:00.433Z,887.4
2022-11-07T10:54:00.352Z,887.4
2022-11-07T10:55:00.336Z,887.3
2022-11-07T10:56:00.373Z,887.3
2022-11-07T10:57:00.676Z,887.3
2022-11-07T10:58:00.318Z,887.3
2022-11-07T10:59:00.323Z,887.3
2022-11-07T11:00:00.319Z,887.3
2022-11-07T11:01:00.371Z,887.3
2022-11-07T11:02:00.375Z,887.3
2022-11-07T11:03:00.500Z,887.3
2022-11-07T11:04:00.326Z,887.3
2022-11-07T11:05:00.793Z,887.3
2022-11-07T11:06:00.725Z,887.3
2022-11-07T11:07:00.610Z,887.3
2022-11-07T11:08:00.496Z,887.3
2022-11-07T11:09:00.729Z,887.3
2022-11-07T11:10:00.450Z,887.3
2022-11-07T11:11:00.625Z,887.3
2022-11-07T11:12:00.359Z,887.3
2022-11-07T11:13:00.507Z,887.3
2022-11-07T11:14:00.539Z,887.3
2022-11-07T11:15:00.835Z,887.3
2022-11-07T11:16:05.589Z,887.3
2022-11-07T11:17:00.558Z,887.3
2022-11-07T11:18:00.618Z,887.3
2022-11-07T11:19:00.539Z,887.4
2022-11-07T11:20:00.641Z,887.3
2022-11-07T11:21:00.619Z,887.3
2022-11-07T11:22:00.494Z,887.3
2022-11-07T11:23:00.446Z,887.2
2022-11-07T11:24:00.626Z,887.2
2022-11-07T11:25:00.421Z,887.2
2022-11-07T11:26:00.338Z,887.3
2022-11-07T11:27:00.480Z,887.2
2022-11-07T11:28:00.336Z,887.3
2022-11-07T11:29:00.414Z,887.3
2022-11-07T11:30:00.330Z,887.3
2022-11-07T11:31:00.358Z,887.3
2022-11-07T11:32:00.391Z,887.2
2022-11-07T11:33:00.630Z,887.2
2022-11-07T11:34:00.352Z,887.2
2022-11-07T11:35:00.364Z,887.3
2022-11-07T11:36:00.500Z,887.2
2022-11-07T11:37:00.399Z,887.2
2022-11-07T11:38:00.324Z,887.2
2022-11-07T11:39:00.469Z,887.2
2022-11-07T11:40:00.410Z,887.2
2022-11-07T11:41:06.124Z,887.2
2022-11-07T11:42:00.441Z,887.2
2022-11-07T11:43:00.560Z,887.2
2022-11-07T11:44:00.356Z,887.2
2022-11-07T11:45:00.509Z,887.2
2022-11-07T11:46:00.360Z,887.2
2022-11-07T11:47:00.324Z,887.2
2022-11-07T11:48:00.421Z,887.2
2022-11-07T11:49:00.339Z,887.2
2022-11-07T11:50:00.319Z,887.2
2022-11-07T11:51:00.484Z,887.1
2022-11-07T11:52:00.329Z,887.1
2022-11-07T11:53:00.344Z,887.1
2022-11-07T11:54:00.329Z,887.1
2022-11-07T11:55:00.369Z,887.1
2022-11-07T11:56:00.316Z,887.1
2022-11-07T11:57:00.468Z,887.1
2022-11-07T11:58:00.352Z,887.1
2022-11-07T11:59:00.342Z,887.1
2022-11-07T12:00:00.358Z,887.1
2022-11-07T12:01:00.309Z,887.1
2022-11-07T12:02:00.445Z,887.1
2022-11-07T12:03:00.445Z,887.1
2022-11-07T12:04:03.837Z,887.1
2022-11-07T12:05:00.387Z,887.1
2022-11-07T12:06:00.569Z,887.1
2022-11-07T12:07:00.312Z,887.1
2022-11-07T12:08:00.465Z,887.1
2022-11-07T12:09:00.736Z,887.1
2022-11-07T12:10:00.439Z,887.1
2022-11-07T12:11:00.351Z,887.1
2022-11-07T12:12:00.319Z,887.1
2022-11-07T12:13:00.375Z,887.1
2022-11-07T12:14:00.331Z,887.1
2022-11-07T12:15:00.582Z,887.1
2022-11-07T12:16:00.335Z,887.0
2022-11-07T12:17:00.428Z,887.1
2022-11-07T12:18:00.352Z,887.0
2022-11-07T12:19:00.362Z,887.0
2022-11-07T12:20:00.390Z,887.0
2022-11-07T12:21:00.752Z,887.1
2022-11-07T12:22:00.388Z,887.1
2022-11-07T12:23:00.360Z,887.0
2022-11-07T12:24:00.323Z,887.0
2022-11-07T12:25:00.380Z,887.1
2022-11-07T12:26:00.331Z,887.1
2022-11-07T12:27:00.620Z,887.0
2022-11-07T12:28:00.357Z,887.1
2022-11-07T12:29:00.370Z,887.0
2022-11-07T12:30:00.327Z,887.1
2022-11-07T12:31:00.343Z,887.1
2022-11-07T12:32:00.346Z,887.1
2022-11-07T12:33:00.597Z,887.1
2022-11-07T12:34:00.356Z,887.1
2022-11-07T12:35:00.331Z,887.1
2022-11-07T12:36:00.486Z,887.1
2022-11-07T12:37:00.461Z,887.1
2022-11-07T12:38:00.378Z,887.1
2022-11-07T12:39:00.555Z,887.2
2022-11-07T12:40:00.329Z,887.2
2022-11-07T12:41:00.340Z,887.1
2022-11-07T12:42:00.378Z,887.1
2022-11-07T12:43:00.394Z,887.1
2022-11-07T12:44:00.435Z,887.1
2022-11-07T12:45:00.449Z,887.1
2022-11-07T12:46:00.337Z,887.1
2022-11-07T12:47:00.394Z,887.1
2022-11-07T12:48:00.323Z,887.1
2022-11-07T12:49:00.385Z,887.1
2022-11-07T12:50:00.324Z,887.1
2022-11-07T12:51:00.654Z,887.1
2022-11-07T12:52:00.591Z,887.2
2022-11-07T12:53:00.323Z,887.2